sensor_id;sensor_type;location;lat;lon;timestamp;P1;durP1;ratioP1;P2;durP2;ratioP2
56242;SDS011;42155;53.096;23.226;2023-01-15T00:01:34;32.85;;;14.50;;
56242;SDS011;42155;53.096;23.226;2023-01-15T00:03:35;27.75;;;15.05;;
56242;SDS011;42155;53.096;23.226;2023-01-15T00:05:35;28.20;;;13.15;;
56242;SDS011;42155;53.096;23.226;2023-01-15T00:07:36;34.53;;;15.20;;
56242;SDS011;42155;53.096;23.226;2023-01-15T00:09:36;35.30;;;14.70;;
56242;SDS011;42155;53.096;23.226;2023-01-15T00:11:37;32.67;;;15.13;;
56242;SDS011;42155;53.096;23.226;2023-01-15T00:13:37;27.30;;;13.65;;
56242;SDS011;42155;53.096;23.226;2023-01-15T00:15:38;31.55;;;16.65;;
56242;SDS011;42155;53.096;23.226;2023-01-15T00:17:38;27.73;;;13.70;;
56242;SDS011;42155;53.096;23.226;2023-01-15T00:19:38;30.98;;;13.98;;
56242;SDS011;42155;53.096;23.226;2023-01-15T00:21:39;30.95;;;15.00;;
56242;SDS011;42155;53.096;23.226;2023-01-15T00:23:39;31.20;;;14.50;;
56242;SDS011;42155;53.096;23.226;2023-01-15T00:25:39;29.55;;;14.63;;
56242;SDS011;42155;53.096;23.226;2023-01-15T00:27:40;29.85;;;14.15;;
56242;SDS011;42155;53.096;23.226;2023-01-15T00:29:40;29.55;;;13.30;;
56242;SDS011;42155;53.096;23.226;2023-01-15T00:31:40;32.75;;;14.57;;
56242;SDS011;42155;53.096;23.226;2023-01-15T00:33:41;30.58;;;15.10;;
56242;SDS011;42155;53.096;23.226;2023-01-15T00:35:42;26.58;;;13.90;;
56242;SDS011;42155;53.096;23.226;2023-01-15T00:37:42;24.90;;;11.95;;
56242;SDS011;42155;53.096;23.226;2023-01-15T00:39:43;29.75;;;12.88;;
56242;SDS011;42155;53.096;23.226;2023-01-15T00:41:43;24.15;;;11.98;;
56242;SDS011;42155;53.096;23.226;2023-01-15T00:43:43;24.05;;;12.30;;
56242;SDS011;42155;53.096;23.226;2023-01-15T00:45:44;27.65;;;12.70;;
56242;SDS011;42155;53.096;23.226;2023-01-15T00:47:44;26.70;;;12.23;;
56242;SDS011;42155;53.096;23.226;2023-01-15T00:49:44;36.08;;;12.68;;
56242;SDS011;42155;53.096;23.226;2023-01-15T00:51:45;21.48;;;11.00;;
56242;SDS011;42155;53.096;23.226;2023-01-15T00:53:45;24.83;;;12.52;;
56242;SDS011;42155;53.096;23.226;2023-01-15T00:55:45;25.20;;;11.77;;
56242;SDS011;42155;53.096;23.226;2023-01-15T00:57:46;26.20;;;12.40;;
56242;SDS011;42155;53.096;23.226;2023-01-15T00:59:46;24.98;;;11.65;;
56242;SDS011;42155;53.096;23.226;2023-01-15T01:01:46;25.40;;;12.20;;
56242;SDS011;42155;53.096;23.226;2023-01-15T01:03:46;24.70;;;11.88;;
56242;SDS011;42155;53.096;23.226;2023-01-15T01:05:47;25.10;;;11.25;;
56242;SDS011;42155;53.096;23.226;2023-01-15T01:07:47;26.05;;;11.77;;
56242;SDS011;42155;53.096;23.226;2023-01-15T01:09:48;24.65;;;11.95;;
56242;SDS011;42155;53.096;23.226;2023-01-15T01:11:48;22.83;;;11.23;;
56242;SDS011;42155;53.096;23.226;2023-01-15T01:13:49;23.77;;;10.23;;
56242;SDS011;42155;53.096;23.226;2023-01-15T01:15:49;27.48;;;11.02;;
56242;SDS011;42155;53.096;23.226;2023-01-15T01:17:49;24.27;;;11.80;;
56242;SDS011;42155;53.096;23.226;2023-01-15T01:19:50;23.20;;;11.70;;
56242;SDS011;42155;53.096;23.226;2023-01-15T01:21:50;27.15;;;12.13;;
56242;SDS011;42155;53.096;23.226;2023-01-15T01:23:51;25.75;;;11.23;;
56242;SDS011;42155;53.096;23.226;2023-01-15T01:25:51;26.58;;;11.45;;
56242;SDS011;42155;53.096;23.226;2023-01-15T01:27:52;25.35;;;13.40;;
56242;SDS011;42155;53.096;23.226;2023-01-15T01:29:52;22.45;;;10.63;;
56242;SDS011;42155;53.096;23.226;2023-01-15T01:31:52;25.35;;;11.60;;
56242;SDS011;42155;53.096;23.226;2023-01-15T01:33:53;24.85;;;11.80;;
56242;SDS011;42155;53.096;23.226;2023-01-15T01:35:55;22.20;;;10.63;;
56242;SDS011;42155;53.096;23.226;2023-01-15T01:37:56;25.67;;;12.30;;
56242;SDS011;42155;53.096;23.226;2023-01-15T01:39:56;23.30;;;10.85;;
56242;SDS011;42155;53.096;23.226;2023-01-15T01:41:56;25.27;;;11.63;;
56242;SDS011;42155;53.096;23.226;2023-01-15T01:43:58;24.30;;;11.00;;
56242;SDS011;42155;53.096;23.226;2023-01-15T01:46:00;26.92;;;12.00;;
56242;SDS011;42155;53.096;23.226;2023-01-15T01:48:01;24.50;;;11.32;;
56242;SDS011;42155;53.096;23.226;2023-01-15T01:50:07;25.88;;;11.75;;
56242;SDS011;42155;53.096;23.226;2023-01-15T01:52:18;22.02;;;10.48;;
56242;SDS011;42155;53.096;23.226;2023-01-15T01:54:22;26.20;;;12.38;;
56242;SDS011;42155;53.096;23.226;2023-01-15T01:56:24;21.95;;;10.80;;
56242;SDS011;42155;53.096;23.226;2023-01-15T01:58:26;23.33;;;10.25;;
56242;SDS011;42155;53.096;23.226;2023-01-15T02:00:30;23.70;;;11.00;;
56242;SDS011;42155;53.096;23.226;2023-01-15T02:02:32;19.67;;;10.50;;
56242;SDS011;42155;53.096;23.226;2023-01-15T02:04:32;22.88;;;10.95;;
56242;SDS011;42155;53.096;23.226;2023-01-15T02:06:35;24.98;;;11.43;;
56242;SDS011;42155;53.096;23.226;2023-01-15T02:08:37;22.20;;;10.80;;
56242;SDS011;42155;53.096;23.226;2023-01-15T02:10:37;23.10;;;11.45;;
56242;SDS011;42155;53.096;23.226;2023-01-15T02:12:38;26.60;;;10.73;;
56242;SDS011;42155;53.096;23.226;2023-01-15T02:14:59;24.40;;;10.70;;
56242;SDS011;42155;53.096;23.226;2023-01-15T02:21:50;23.13;;;10.57;;
56242;SDS011;42155;53.096;23.226;2023-01-15T02:28:31;22.17;;;10.88;;
56242;SDS011;42155;53.096;23.226;2023-01-15T02:30:42;21.67;;;10.48;;
56242;SDS011;42155;53.096;23.226;2023-01-15T02:34:56;22.25;;;10.73;;
56242;SDS011;42155;53.096;23.226;2023-01-15T02:37:05;22.33;;;11.05;;
56242;SDS011;42155;53.096;23.226;2023-01-15T02:39:12;23.33;;;10.68;;
56242;SDS011;42155;53.096;23.226;2023-01-15T02:41:16;21.52;;;10.70;;
56242;SDS011;42155;53.096;23.226;2023-01-15T02:43:21;20.77;;;10.50;;
56242;SDS011;42155;53.096;23.226;2023-01-15T02:45:24;21.83;;;10.57;;
56242;SDS011;42155;53.096;23.226;2023-01-15T02:47:30;23.38;;;10.23;;
56242;SDS011;42155;53.096;23.226;2023-01-15T02:49:34;20.23;;;9.98;;
56242;SDS011;42155;53.096;23.226;2023-01-15T02:51:42;21.30;;;11.07;;
56242;SDS011;42155;53.096;23.226;2023-01-15T02:53:48;19.48;;;10.38;;
56242;SDS011;42155;53.096;23.226;2023-01-15T02:55:53;21.42;;;10.13;;
56242;SDS011;42155;53.096;23.226;2023-01-15T02:57:57;21.73;;;10.13;;
56242;SDS011;42155;53.096;23.226;2023-01-15T03:00:03;24.63;;;9.77;;
56242;SDS011;42155;53.096;23.226;2023-01-15T03:02:16;24.13;;;10.68;;
56242;SDS011;42155;53.096;23.226;2023-01-15T03:04:21;18.90;;;9.45;;
56242;SDS011;42155;53.096;23.226;2023-01-15T03:06:37;23.17;;;10.50;;
56242;SDS011;42155;53.096;23.226;2023-01-15T03:08:42;20.83;;;9.93;;
56242;SDS011;42155;53.096;23.226;2023-01-15T03:12:59;18.02;;;9.15;;
56242;SDS011;42155;53.096;23.226;2023-01-15T03:15:05;19.63;;;10.18;;
56242;SDS011;42155;53.096;23.226;2023-01-15T03:17:13;20.00;;;10.73;;
56242;SDS011;42155;53.096;23.226;2023-01-15T03:19:26;21.27;;;9.93;;
56242;SDS011;42155;53.096;23.226;2023-01-15T03:21:31;19.38;;;9.63;;
56242;SDS011;42155;53.096;23.226;2023-01-15T03:24:07;19.23;;;10.02;;
56242;SDS011;42155;53.096;23.226;2023-01-15T03:26:10;21.35;;;10.30;;
56242;SDS011;42155;53.096;23.226;2023-01-15T03:28:10;19.80;;;10.15;;
56242;SDS011;42155;53.096;23.226;2023-01-15T03:30:14;20.38;;;9.95;;
56242;SDS011;42155;53.096;23.226;2023-01-15T03:32:17;20.52;;;9.90;;
56242;SDS011;42155;53.096;23.226;2023-01-15T03:34:18;18.80;;;9.80;;
56242;SDS011;42155;53.096;23.226;2023-01-15T03:36:19;18.98;;;9.25;;
56242;SDS011;42155;53.096;23.226;2023-01-15T03:38:20;20.02;;;9.95;;
56242;SDS011;42155;53.096;23.226;2023-01-15T03:40:23;21.48;;;10.13;;
56242;SDS011;42155;53.096;23.226;2023-01-15T03:42:40;21.63;;;10.25;;
56242;SDS011;42155;53.096;23.226;2023-01-15T03:47:03;20.50;;;9.73;;
56242;SDS011;42155;53.096;23.226;2023-01-15T03:51:34;18.55;;;9.07;;
56242;SDS011;42155;53.096;23.226;2023-01-15T03:53:45;19.60;;;10.07;;
56242;SDS011;42155;53.096;23.226;2023-01-15T03:58:26;17.55;;;8.82;;
56242;SDS011;42155;53.096;23.226;2023-01-15T04:00:31;16.50;;;8.30;;
56242;SDS011;42155;53.096;23.226;2023-01-15T04:02:35;16.23;;;8.23;;
56242;SDS011;42155;53.096;23.226;2023-01-15T04:04:37;18.70;;;9.52;;
56242;SDS011;42155;53.096;23.226;2023-01-15T04:06:39;18.60;;;9.25;;
56242;SDS011;42155;53.096;23.226;2023-01-15T04:08:41;18.58;;;9.13;;
56242;SDS011;42155;53.096;23.226;2023-01-15T04:10:51;17.10;;;8.95;;
56242;SDS011;42155;53.096;23.226;2023-01-15T04:12:53;21.42;;;9.80;;
56242;SDS011;42155;53.096;23.226;2023-01-15T04:14:53;18.52;;;9.07;;
56242;SDS011;42155;53.096;23.226;2023-01-15T04:16:54;17.42;;;9.02;;
56242;SDS011;42155;53.096;23.226;2023-01-15T04:18:54;16.90;;;8.10;;
56242;SDS011;42155;53.096;23.226;2023-01-15T04:20:54;17.10;;;9.00;;
56242;SDS011;42155;53.096;23.226;2023-01-15T04:22:55;17.00;;;8.43;;
56242;SDS011;42155;53.096;23.226;2023-01-15T04:24:56;16.17;;;7.93;;
56242;SDS011;42155;53.096;23.226;2023-01-15T04:26:56;15.88;;;8.35;;
56242;SDS011;42155;53.096;23.226;2023-01-15T04:28:56;16.77;;;8.52;;
56242;SDS011;42155;53.096;23.226;2023-01-15T04:30:57;17.75;;;8.63;;
56242;SDS011;42155;53.096;23.226;2023-01-15T04:32:57;15.80;;;8.23;;
56242;SDS011;42155;53.096;23.226;2023-01-15T04:34:57;18.17;;;8.15;;
56242;SDS011;42155;53.096;23.226;2023-01-15T04:36:58;17.73;;;8.38;;
56242;SDS011;42155;53.096;23.226;2023-01-15T04:38:58;13.85;;;7.95;;
56242;SDS011;42155;53.096;23.226;2023-01-15T04:40:59;15.23;;;7.80;;
56242;SDS011;42155;53.096;23.226;2023-01-15T04:43:00;15.68;;;7.82;;
56242;SDS011;42155;53.096;23.226;2023-01-15T04:45:01;14.73;;;8.20;;
56242;SDS011;42155;53.096;23.226;2023-01-15T04:47:01;13.02;;;7.43;;
56242;SDS011;42155;53.096;23.226;2023-01-15T04:49:03;16.60;;;8.23;;
56242;SDS011;42155;53.096;23.226;2023-01-15T04:51:05;17.52;;;8.05;;
56242;SDS011;42155;53.096;23.226;2023-01-15T04:53:06;15.15;;;8.45;;
56242;SDS011;42155;53.096;23.226;2023-01-15T04:55:06;17.85;;;7.95;;
56242;SDS011;42155;53.096;23.226;2023-01-15T04:57:07;16.35;;;8.40;;
56242;SDS011;42155;53.096;23.226;2023-01-15T04:59:07;16.02;;;8.02;;
56242;SDS011;42155;53.096;23.226;2023-01-15T05:01:11;14.80;;;8.23;;
56242;SDS011;42155;53.096;23.226;2023-01-15T05:03:13;15.35;;;7.32;;
56242;SDS011;42155;53.096;23.226;2023-01-15T05:05:13;14.18;;;7.95;;
56242;SDS011;42155;53.096;23.226;2023-01-15T05:07:14;18.60;;;8.75;;
56242;SDS011;42155;53.096;23.226;2023-01-15T05:09:14;18.35;;;8.07;;
56242;SDS011;42155;53.096;23.226;2023-01-15T05:11:14;17.50;;;7.80;;
56242;SDS011;42155;53.096;23.226;2023-01-15T05:13:15;17.10;;;8.63;;
56242;SDS011;42155;53.096;23.226;2023-01-15T05:15:15;18.25;;;7.45;;
56242;SDS011;42155;53.096;23.226;2023-01-15T05:17:15;12.90;;;6.82;;
56242;SDS011;42155;53.096;23.226;2023-01-15T05:19:16;16.02;;;7.70;;
56242;SDS011;42155;53.096;23.226;2023-01-15T05:21:17;13.45;;;7.57;;
56242;SDS011;42155;53.096;23.226;2023-01-15T05:23:24;16.55;;;7.32;;
56242;SDS011;42155;53.096;23.226;2023-01-15T05:25:24;15.55;;;7.65;;
56242;SDS011;42155;53.096;23.226;2023-01-15T05:27:24;14.48;;;7.45;;
56242;SDS011;42155;53.096;23.226;2023-01-15T05:29:25;16.67;;;7.78;;
56242;SDS011;42155;53.096;23.226;2023-01-15T05:31:25;14.50;;;8.10;;
56242;SDS011;42155;53.096;23.226;2023-01-15T05:33:27;17.52;;;7.50;;
56242;SDS011;42155;53.096;23.226;2023-01-15T05:35:28;13.00;;;7.40;;
56242;SDS011;42155;53.096;23.226;2023-01-15T05:37:29;15.02;;;7.93;;
56242;SDS011;42155;53.096;23.226;2023-01-15T05:39:29;14.48;;;7.40;;
56242;SDS011;42155;53.096;23.226;2023-01-15T05:41:29;14.77;;;7.78;;
56242;SDS011;42155;53.096;23.226;2023-01-15T05:43:30;15.57;;;7.10;;
56242;SDS011;42155;53.096;23.226;2023-01-15T05:45:32;14.45;;;7.43;;
56242;SDS011;42155;53.096;23.226;2023-01-15T05:47:33;14.60;;;7.20;;
56242;SDS011;42155;53.096;23.226;2023-01-15T05:49:34;14.60;;;7.28;;
56242;SDS011;42155;53.096;23.226;2023-01-15T05:51:34;14.50;;;7.18;;
56242;SDS011;42155;53.096;23.226;2023-01-15T05:53:35;13.10;;;6.88;;
56242;SDS011;42155;53.096;23.226;2023-01-15T05:55:35;15.13;;;7.57;;
56242;SDS011;42155;53.096;23.226;2023-01-15T05:57:36;13.32;;;6.70;;
56242;SDS011;42155;53.096;23.226;2023-01-15T05:59:36;13.50;;;6.88;;
56242;SDS011;42155;53.096;23.226;2023-01-15T06:01:37;14.90;;;7.20;;
56242;SDS011;42155;53.096;23.226;2023-01-15T06:03:37;12.90;;;6.50;;
56242;SDS011;42155;53.096;23.226;2023-01-15T06:05:37;11.95;;;6.93;;
56242;SDS011;42155;53.096;23.226;2023-01-15T06:07:38;12.77;;;5.72;;
56242;SDS011;42155;53.096;23.226;2023-01-15T06:09:38;12.73;;;6.97;;
56242;SDS011;42155;53.096;23.226;2023-01-15T06:11:39;12.57;;;6.35;;
56242;SDS011;42155;53.096;23.226;2023-01-15T06:13:39;11.98;;;6.47;;
56242;SDS011;42155;53.096;23.226;2023-01-15T06:15:40;14.05;;;6.60;;
56242;SDS011;42155;53.096;23.226;2023-01-15T06:17:41;14.93;;;6.75;;
56242;SDS011;42155;53.096;23.226;2023-01-15T06:19:41;10.77;;;5.68;;
56242;SDS011;42155;53.096;23.226;2023-01-15T06:21:41;12.60;;;6.60;;
56242;SDS011;42155;53.096;23.226;2023-01-15T06:23:42;12.57;;;6.15;;
56242;SDS011;42155;53.096;23.226;2023-01-15T06:25:43;13.45;;;6.55;;
56242;SDS011;42155;53.096;23.226;2023-01-15T06:27:44;14.07;;;6.82;;
56242;SDS011;42155;53.096;23.226;2023-01-15T06:29:44;15.68;;;7.18;;
56242;SDS011;42155;53.096;23.226;2023-01-15T06:31:45;14.65;;;6.28;;
56242;SDS011;42155;53.096;23.226;2023-01-15T06:33:45;14.07;;;6.68;;
56242;SDS011;42155;53.096;23.226;2023-01-15T06:35:46;12.23;;;6.57;;
56242;SDS011;42155;53.096;23.226;2023-01-15T06:37:47;14.98;;;7.35;;
56242;SDS011;42155;53.096;23.226;2023-01-15T06:39:48;11.45;;;6.32;;
56242;SDS011;42155;53.096;23.226;2023-01-15T06:41:49;14.38;;;7.13;;
56242;SDS011;42155;53.096;23.226;2023-01-15T06:43:49;11.43;;;6.03;;
56242;SDS011;42155;53.096;23.226;2023-01-15T06:45:49;11.13;;;6.20;;
56242;SDS011;42155;53.096;23.226;2023-01-15T06:47:50;10.70;;;5.63;;
56242;SDS011;42155;53.096;23.226;2023-01-15T06:49:54;10.32;;;5.53;;
56242;SDS011;42155;53.096;23.226;2023-01-15T06:51:55;10.77;;;5.63;;
56242;SDS011;42155;53.096;23.226;2023-01-15T06:53:56;13.82;;;6.22;;
56242;SDS011;42155;53.096;23.226;2023-01-15T06:55:56;13.18;;;6.15;;
56242;SDS011;42155;53.096;23.226;2023-01-15T06:57:56;11.00;;;5.63;;
56242;SDS011;42155;53.096;23.226;2023-01-15T06:59:56;9.40;;;5.28;;
56242;SDS011;42155;53.096;23.226;2023-01-15T07:01:57;12.07;;;6.15;;
56242;SDS011;42155;53.096;23.226;2023-01-15T07:03:57;11.70;;;5.75;;
56242;SDS011;42155;53.096;23.226;2023-01-15T07:05:58;13.32;;;6.03;;
56242;SDS011;42155;53.096;23.226;2023-01-15T07:07:58;12.02;;;6.53;;
56242;SDS011;42155;53.096;23.226;2023-01-15T07:09:58;13.55;;;6.95;;
56242;SDS011;42155;53.096;23.226;2023-01-15T07:11:59;12.63;;;6.00;;
56242;SDS011;42155;53.096;23.226;2023-01-15T07:13:59;13.43;;;6.60;;
56242;SDS011;42155;53.096;23.226;2023-01-15T07:16:00;15.30;;;7.13;;
56242;SDS011;42155;53.096;23.226;2023-01-15T07:18:02;12.95;;;6.88;;
56242;SDS011;42155;53.096;23.226;2023-01-15T07:20:02;13.07;;;6.63;;
56242;SDS011;42155;53.096;23.226;2023-01-15T07:22:03;16.42;;;7.30;;
56242;SDS011;42155;53.096;23.226;2023-01-15T07:24:04;11.32;;;6.18;;
56242;SDS011;42155;53.096;23.226;2023-01-15T07:26:05;12.00;;;5.85;;
56242;SDS011;42155;53.096;23.226;2023-01-15T07:28:05;12.40;;;6.43;;
56242;SDS011;42155;53.096;23.226;2023-01-15T07:30:06;12.32;;;5.70;;
56242;SDS011;42155;53.096;23.226;2023-01-15T07:32:07;11.75;;;6.03;;
56242;SDS011;42155;53.096;23.226;2023-01-15T07:34:09;9.70;;;5.38;;
56242;SDS011;42155;53.096;23.226;2023-01-15T07:36:09;11.68;;;5.90;;
56242;SDS011;42155;53.096;23.226;2023-01-15T07:38:10;11.35;;;5.95;;
56242;SDS011;42155;53.096;23.226;2023-01-15T07:40:10;11.07;;;5.70;;
56242;SDS011;42155;53.096;23.226;2023-01-15T07:42:11;10.25;;;4.90;;
56242;SDS011;42155;53.096;23.226;2023-01-15T07:44:11;9.23;;;4.72;;
56242;SDS011;42155;53.096;23.226;2023-01-15T07:46:11;10.52;;;5.63;;
56242;SDS011;42155;53.096;23.226;2023-01-15T07:48:12;9.98;;;5.18;;
56242;SDS011;42155;53.096;23.226;2023-01-15T07:50:13;10.05;;;5.30;;
56242;SDS011;42155;53.096;23.226;2023-01-15T07:52:18;12.65;;;5.95;;
56242;SDS011;42155;53.096;23.226;2023-01-15T07:54:20;9.75;;;5.07;;
56242;SDS011;42155;53.096;23.226;2023-01-15T07:56:21;11.88;;;5.88;;
56242;SDS011;42155;53.096;23.226;2023-01-15T07:58:21;9.45;;;5.32;;
56242;SDS011;42155;53.096;23.226;2023-01-15T08:00:23;11.80;;;6.00;;
56242;SDS011;42155;53.096;23.226;2023-01-15T08:02:24;11.88;;;6.18;;
56242;SDS011;42155;53.096;23.226;2023-01-15T08:04:24;10.88;;;5.78;;
56242;SDS011;42155;53.096;23.226;2023-01-15T08:06:25;11.23;;;5.50;;
56242;SDS011;42155;53.096;23.226;2023-01-15T08:08:25;9.98;;;5.03;;
56242;SDS011;42155;53.096;23.226;2023-01-15T08:10:25;15.85;;;6.13;;
56242;SDS011;42155;53.096;23.226;2023-01-15T08:12:25;9.27;;;5.18;;
56242;SDS011;42155;53.096;23.226;2023-01-15T08:14:26;10.45;;;5.45;;
56242;SDS011;42155;53.096;23.226;2023-01-15T08:16:26;11.35;;;5.53;;
56242;SDS011;42155;53.096;23.226;2023-01-15T08:18:27;11.75;;;6.22;;
56242;SDS011;42155;53.096;23.226;2023-01-15T08:20:27;11.20;;;5.57;;
56242;SDS011;42155;53.096;23.226;2023-01-15T08:22:27;11.57;;;5.30;;
56242;SDS011;42155;53.096;23.226;2023-01-15T08:24:28;15.23;;;6.40;;
56242;SDS011;42155;53.096;23.226;2023-01-15T08:26:28;10.55;;;5.60;;
56242;SDS011;42155;53.096;23.226;2023-01-15T08:28:28;10.32;;;5.25;;
56242;SDS011;42155;53.096;23.226;2023-01-15T08:30:29;10.38;;;5.50;;
56242;SDS011;42155;53.096;23.226;2023-01-15T08:32:29;11.23;;;5.75;;
56242;SDS011;42155;53.096;23.226;2023-01-15T08:34:29;14.00;;;6.57;;
56242;SDS011;42155;53.096;23.226;2023-01-15T08:36:30;12.90;;;5.70;;
56242;SDS011;42155;53.096;23.226;2023-01-15T08:38:30;16.20;;;7.25;;
56242;SDS011;42155;53.096;23.226;2023-01-15T08:40:30;14.05;;;6.38;;
56242;SDS011;42155;53.096;23.226;2023-01-15T08:42:31;14.88;;;6.68;;
56242;SDS011;42155;53.096;23.226;2023-01-15T08:44:32;13.50;;;6.53;;
56242;SDS011;42155;53.096;23.226;2023-01-15T08:46:32;15.95;;;6.57;;
56242;SDS011;42155;53.096;23.226;2023-01-15T08:48:33;13.23;;;6.50;;
56242;SDS011;42155;53.096;23.226;2023-01-15T08:50:33;14.18;;;6.57;;
56242;SDS011;42155;53.096;23.226;2023-01-15T08:52:34;11.63;;;5.72;;
56242;SDS011;42155;53.096;23.226;2023-01-15T08:54:34;14.25;;;6.47;;
56242;SDS011;42155;53.096;23.226;2023-01-15T08:56:34;14.95;;;6.43;;
56242;SDS011;42155;53.096;23.226;2023-01-15T08:58:35;13.20;;;6.10;;
56242;SDS011;42155;53.096;23.226;2023-01-15T09:00:35;14.68;;;6.20;;
56242;SDS011;42155;53.096;23.226;2023-01-15T09:02:35;16.50;;;7.88;;
56242;SDS011;42155;53.096;23.226;2023-01-15T09:04:36;16.45;;;7.05;;
56242;SDS011;42155;53.096;23.226;2023-01-15T09:06:36;12.65;;;5.88;;
56242;SDS011;42155;53.096;23.226;2023-01-15T09:08:36;13.10;;;5.78;;
56242;SDS011;42155;53.096;23.226;2023-01-15T09:10:37;13.98;;;6.45;;
56242;SDS011;42155;53.096;23.226;2023-01-15T09:12:37;12.15;;;6.28;;
56242;SDS011;42155;53.096;23.226;2023-01-15T09:14:37;11.82;;;5.63;;
56242;SDS011;42155;53.096;23.226;2023-01-15T09:16:38;11.00;;;4.93;;
56242;SDS011;42155;53.096;23.226;2023-01-15T09:18:38;11.27;;;5.30;;
56242;SDS011;42155;53.096;23.226;2023-01-15T09:20:39;12.50;;;5.47;;
56242;SDS011;42155;53.096;23.226;2023-01-15T09:22:39;10.70;;;5.35;;
56242;SDS011;42155;53.096;23.226;2023-01-15T09:24:39;12.63;;;6.00;;
56242;SDS011;42155;53.096;23.226;2023-01-15T09:26:40;11.27;;;5.88;;
56242;SDS011;42155;53.096;23.226;2023-01-15T09:28:40;12.30;;;5.85;;
56242;SDS011;42155;53.096;23.226;2023-01-15T09:30:40;9.13;;;5.22;;
56242;SDS011;42155;53.096;23.226;2023-01-15T09:32:41;21.10;;;9.50;;
56242;SDS011;42155;53.096;23.226;2023-01-15T09:34:41;11.25;;;5.60;;
56242;SDS011;42155;53.096;23.226;2023-01-15T09:36:41;11.63;;;5.57;;
56242;SDS011;42155;53.096;23.226;2023-01-15T09:38:42;10.82;;;5.47;;
56242;SDS011;42155;53.096;23.226;2023-01-15T09:40:45;9.32;;;5.00;;
56242;SDS011;42155;53.096;23.226;2023-01-15T09:42:50;12.25;;;5.43;;
56242;SDS011;42155;53.096;23.226;2023-01-15T09:56:28;11.82;;;5.72;;
56242;SDS011;42155;53.096;23.226;2023-01-15T09:58:37;12.73;;;5.50;;
56242;SDS011;42155;53.096;23.226;2023-01-15T10:00:40;11.43;;;4.93;;
56242;SDS011;42155;53.096;23.226;2023-01-15T10:02:48;10.82;;;5.38;;
56242;SDS011;42155;53.096;23.226;2023-01-15T10:04:53;13.15;;;5.75;;
56242;SDS011;42155;53.096;23.226;2023-01-15T10:09:28;13.13;;;5.38;;
56242;SDS011;42155;53.096;23.226;2023-01-15T10:11:35;11.68;;;5.43;;
56242;SDS011;42155;53.096;23.226;2023-01-15T10:13:52;13.85;;;6.18;;
56242;SDS011;42155;53.096;23.226;2023-01-15T10:15:59;13.57;;;6.38;;
56242;SDS011;42155;53.096;23.226;2023-01-15T10:17:59;17.23;;;6.63;;
56242;SDS011;42155;53.096;23.226;2023-01-15T10:20:00;14.75;;;6.65;;
56242;SDS011;42155;53.096;23.226;2023-01-15T10:22:05;18.13;;;6.85;;
56242;SDS011;42155;53.096;23.226;2023-01-15T10:24:26;15.05;;;6.95;;
56242;SDS011;42155;53.096;23.226;2023-01-15T10:26:37;14.18;;;6.45;;
56242;SDS011;42155;53.096;23.226;2023-01-15T10:28:50;13.05;;;6.20;;
56242;SDS011;42155;53.096;23.226;2023-01-15T10:30:55;15.43;;;6.85;;
56242;SDS011;42155;53.096;23.226;2023-01-15T10:33:01;14.15;;;6.78;;
56242;SDS011;42155;53.096;23.226;2023-01-15T10:42:26;14.27;;;6.28;;
56242;SDS011;42155;53.096;23.226;2023-01-15T10:46:48;11.65;;;5.65;;
56242;SDS011;42155;53.096;23.226;2023-01-15T10:48:56;11.38;;;5.40;;
56242;SDS011;42155;53.096;23.226;2023-01-15T10:51:02;12.52;;;6.38;;
56242;SDS011;42155;53.096;23.226;2023-01-15T10:53:17;12.13;;;5.72;;
56242;SDS011;42155;53.096;23.226;2023-01-15T10:55:44;17.27;;;6.00;;
56242;SDS011;42155;53.096;23.226;2023-01-15T10:59:57;14.52;;;6.10;;
56242;SDS011;42155;53.096;23.226;2023-01-15T11:01:59;10.07;;;5.15;;
56242;SDS011;42155;53.096;23.226;2023-01-15T11:04:02;14.10;;;6.38;;
56242;SDS011;42155;53.096;23.226;2023-01-15T11:06:03;12.23;;;5.88;;
56242;SDS011;42155;53.096;23.226;2023-01-15T11:08:06;11.23;;;5.43;;
56242;SDS011;42155;53.096;23.226;2023-01-15T11:10:12;9.82;;;5.65;;
56242;SDS011;42155;53.096;23.226;2023-01-15T11:12:27;11.80;;;5.88;;
56242;SDS011;42155;53.096;23.226;2023-01-15T11:16:32;11.25;;;5.63;;
56242;SDS011;42155;53.096;23.226;2023-01-15T11:18:38;13.80;;;6.90;;
56242;SDS011;42155;53.096;23.226;2023-01-15T11:20:44;14.23;;;6.97;;
56242;SDS011;42155;53.096;23.226;2023-01-15T11:22:47;13.40;;;6.63;;
56242;SDS011;42155;53.096;23.226;2023-01-15T11:24:52;14.27;;;6.72;;
56242;SDS011;42155;53.096;23.226;2023-01-15T11:26:57;15.48;;;7.05;;
56242;SDS011;42155;53.096;23.226;2023-01-15T11:28:58;15.18;;;7.10;;
56242;SDS011;42155;53.096;23.226;2023-01-15T11:31:11;15.43;;;6.72;;
56242;SDS011;42155;53.096;23.226;2023-01-15T11:33:25;17.90;;;7.28;;
56242;SDS011;42155;53.096;23.226;2023-01-15T11:35:27;17.98;;;8.18;;
56242;SDS011;42155;53.096;23.226;2023-01-15T11:37:28;12.27;;;6.43;;
56242;SDS011;42155;53.096;23.226;2023-01-15T11:39:29;14.35;;;7.00;;
56242;SDS011;42155;53.096;23.226;2023-01-15T11:41:31;15.63;;;7.60;;
56242;SDS011;42155;53.096;23.226;2023-01-15T11:43:32;15.23;;;6.80;;
56242;SDS011;42155;53.096;23.226;2023-01-15T11:45:33;14.93;;;6.90;;
56242;SDS011;42155;53.096;23.226;2023-01-15T11:47:33;14.07;;;6.65;;
56242;SDS011;42155;53.096;23.226;2023-01-15T11:49:34;17.40;;;7.22;;
56242;SDS011;42155;53.096;23.226;2023-01-15T11:51:42;17.42;;;8.57;;
56242;SDS011;42155;53.096;23.226;2023-01-15T11:53:48;17.05;;;8.20;;
56242;SDS011;42155;53.096;23.226;2023-01-15T11:55:54;15.68;;;7.38;;
56242;SDS011;42155;53.096;23.226;2023-01-15T11:57:58;13.82;;;7.10;;
56242;SDS011;42155;53.096;23.226;2023-01-15T12:00:00;16.38;;;8.05;;
56242;SDS011;42155;53.096;23.226;2023-01-15T12:02:04;12.07;;;6.07;;
56242;SDS011;42155;53.096;23.226;2023-01-15T12:04:30;14.98;;;7.15;;
56242;SDS011;42155;53.096;23.226;2023-01-15T12:06:35;15.20;;;6.70;;
56242;SDS011;42155;53.096;23.226;2023-01-15T12:25:02;15.45;;;7.10;;
56242;SDS011;42155;53.096;23.226;2023-01-15T12:31:37;14.70;;;6.53;;
56242;SDS011;42155;53.096;23.226;2023-01-15T12:41:11;20.92;;;7.82;;
56242;SDS011;42155;53.096;23.226;2023-01-15T12:43:16;15.23;;;6.57;;
56242;SDS011;42155;53.096;23.226;2023-01-15T12:45:24;15.98;;;7.90;;
56242;SDS011;42155;53.096;23.226;2023-01-15T12:49:50;18.02;;;7.93;;
56242;SDS011;42155;53.096;23.226;2023-01-15T12:52:04;19.83;;;7.78;;
56242;SDS011;42155;53.096;23.226;2023-01-15T12:54:12;18.77;;;8.00;;
56242;SDS011;42155;53.096;23.226;2023-01-15T13:03:59;19.67;;;9.02;;
56242;SDS011;42155;53.096;23.226;2023-01-15T13:06:35;16.50;;;7.40;;
56242;SDS011;42155;53.096;23.226;2023-01-15T13:08:46;17.42;;;8.25;;
56242;SDS011;42155;53.096;23.226;2023-01-15T13:10:55;14.82;;;7.78;;
56242;SDS011;42155;53.096;23.226;2023-01-15T13:12:58;18.00;;;8.43;;
56242;SDS011;42155;53.096;23.226;2023-01-15T13:15:15;18.98;;;8.50;;
56242;SDS011;42155;53.096;23.226;2023-01-15T13:17:22;19.67;;;8.52;;
56242;SDS011;42155;53.096;23.226;2023-01-15T13:21:36;17.98;;;8.43;;
56242;SDS011;42155;53.096;23.226;2023-01-15T13:25:51;18.02;;;8.32;;
56242;SDS011;42155;53.096;23.226;2023-01-15T13:28:21;21.55;;;7.78;;